Decoded Metar for KFVE (FRENCHVILLE in ME, USA) (IATA:FVE) | Meteo·Mobile Aviation Weather
aviador You're here:

KFVE Decoded Metar

FRENCHVILLE in ME, USA
Report Time2019-05-25 22:53:00
UTC Time2019-05-25 23:55:30
Flight Rules vfr VFR
Wind190° at 05 kt
W.Decomp.*RWY 14: 1.9 kt HW 4.6 kt RCW
Visibility9999 m
Phenomena:N/A
Clouds:N/A
Expected CloudBase > 7,600 ft AGL from Temp-Dew spread
CeilingNone
Temp22°C (ISA +9)
Dew Point03°C (29% RH)
AAT18.7°C
QNH1014 hPa
Density Alt2,103 ft
Elevation988 ft
Report Wrong Elevation
Raw Report
KFVE 252253Z AUTO 19005KT 10SM CLR 22/03 A2995 RMK AO2 SLP138
T02170028=

Extra information for KFVE:More info

Metar Taf Metar & Taf Last 4 Metars F.Rules Stats Wind Profile Meteogram Temp Stats Airport Information Weather charts Add Link Nearby VenuesMetar ALERT Operation Metar Decoded Social comments

AIRNAV info for KFVE